SWR285 LSZH-LIRF
Flight info
| Callsign | SWR285 |
|---|---|
| Flight time | N/A |
| Altitude | 41000 |
| Route | DEGES3W/28 DEGES Y170 ARGAX DCT RESIA DCT BENUS DCT BAGNO DCT GAVRA DCT RITEB |
| Aircraft | A333/H-SDE3GHIJ2J3J5M1RVWXY/LB2D1 |
Departure
| Time | N/A |
|---|---|
| Airport | Zürich Airport (LSZH) |
Arrival
| Time | 2026-05-05 19:27 |
|---|---|
| Airport | Rome–Fiumicino Leonardo da Vinci International Airport (LIRF) |
| Time | Latitude | Longitude | Altitude | Speed | Heading |
|---|---|---|---|---|---|
| 2026-05-05 18:41 | 46.17859 | 10.27028 | 36280 ft | 451 kts | 158° |
| 2026-05-05 18:41 | 46.15076 | 10.29122 | 36551 ft | 451 kts | 158° |
| 2026-05-05 18:41 | 46.12286 | 10.31220 | 36778 ft | 451 kts | 158° |
| 2026-05-05 18:41 | 46.09505 | 10.33309 | 37137 ft | 450 kts | 158° |
| 2026-05-05 18:42 | 46.06728 | 10.35391 | 37375 ft | 450 kts | 158° |
| 2026-05-05 18:42 | 46.03972 | 10.37453 | 37597 ft | 452 kts | 158° |
| 2026-05-05 18:42 | 46.01172 | 10.39546 | 37824 ft | 453 kts | 158° |
| 2026-05-05 18:42 | 45.98371 | 10.41640 | 38157 ft | 453 kts | 157° |
| 2026-05-05 18:43 | 45.95581 | 10.43728 | 38530 ft | 451 kts | 157° |
| 2026-05-05 18:43 | 45.92798 | 10.45809 | 38801 ft | 450 kts | 157° |
| 2026-05-05 18:43 | 45.90013 | 10.47884 | 39021 ft | 451 kts | 157° |
| 2026-05-05 18:43 | 45.87219 | 10.49960 | 39176 ft | 452 kts | 157° |
| 2026-05-05 18:44 | 45.84417 | 10.52039 | 39304 ft | 454 kts | 157° |
| 2026-05-05 18:44 | 45.81639 | 10.54099 | 39500 ft | 454 kts | 157° |
| 2026-05-05 18:44 | 45.78827 | 10.56182 | 39682 ft | 455 kts | 157° |
| 2026-05-05 18:44 | 45.76009 | 10.58269 | 39916 ft | 455 kts | 157° |
| 2026-05-05 18:45 | 45.73192 | 10.60354 | 40122 ft | 455 kts | 157° |
| 2026-05-05 18:45 | 45.70381 | 10.62434 | 40303 ft | 456 kts | 157° |
| 2026-05-05 18:45 | 45.67558 | 10.64517 | 40419 ft | 457 kts | 157° |
| 2026-05-05 18:45 | 45.64725 | 10.66603 | 40520 ft | 459 kts | 157° |
| 2026-05-05 18:46 | 45.61892 | 10.68689 | 40704 ft | 459 kts | 157° |
| 2026-05-05 18:46 | 45.59052 | 10.70777 | 40893 ft | 458 kts | 157° |
| 2026-05-05 18:46 | 45.53374 | 10.74944 | 40965 ft | 463 kts | 157° |
| 2026-05-05 18:47 | 45.47638 | 10.79146 | 40962 ft | 463 kts | 157° |
| 2026-05-05 18:47 | 45.41909 | 10.83336 | 40968 ft | 463 kts | 157° |
| 2026-05-05 18:48 | 45.36174 | 10.87519 | 40956 ft | 463 kts | 157° |
| 2026-05-05 18:48 | 45.30434 | 10.91694 | 40965 ft | 464 kts | 157° |
| 2026-05-05 18:49 | 45.24682 | 10.95869 | 40933 ft | 464 kts | 157° |
| 2026-05-05 18:49 | 45.18930 | 11.00035 | 40937 ft | 464 kts | 158° |
| 2026-05-05 18:50 | 45.13213 | 11.04166 | 40942 ft | 464 kts | 158° |
| 2026-05-05 18:50 | 45.07434 | 11.08333 | 40937 ft | 464 kts | 158° |
| 2026-05-05 18:51 | 45.01701 | 11.12457 | 40953 ft | 465 kts | 158° |
| 2026-05-05 18:51 | 44.95931 | 11.16597 | 41012 ft | 465 kts | 158° |
| 2026-05-05 18:52 | 44.90130 | 11.20711 | 41014 ft | 464 kts | 160° |
| 2026-05-05 18:52 | 44.84233 | 11.24378 | 41016 ft | 462 kts | 162° |
| 2026-05-05 18:53 | 44.78324 | 11.27829 | 40998 ft | 463 kts | 162° |
| 2026-05-05 18:53 | 44.72360 | 11.31324 | 40988 ft | 464 kts | 162° |
| 2026-05-05 18:54 | 44.66390 | 11.34860 | 40976 ft | 465 kts | 162° |
| 2026-05-05 18:54 | 44.60431 | 11.38400 | 40947 ft | 465 kts | 162° |
| 2026-05-05 18:55 | 44.54454 | 11.41946 | 40967 ft | 466 kts | 162° |
| 2026-05-05 18:55 | 44.48506 | 11.45465 | 40973 ft | 467 kts | 162° |
| 2026-05-05 18:56 | 44.42509 | 11.49005 | 40981 ft | 467 kts | 162° |
| 2026-05-05 18:56 | 44.36526 | 11.52529 | 40993 ft | 466 kts | 162° |
| 2026-05-05 18:57 | 44.30544 | 11.56044 | 41007 ft | 465 kts | 162° |
| 2026-05-05 18:57 | 44.24563 | 11.59550 | 41015 ft | 465 kts | 162° |
| 2026-05-05 18:58 | 44.18629 | 11.63020 | 41006 ft | 465 kts | 162° |
| 2026-05-05 18:58 | 44.12650 | 11.66511 | 41000 ft | 466 kts | 162° |
| 2026-05-05 18:59 | 44.06665 | 11.69996 | 40857 ft | 467 kts | 162° |
| 2026-05-05 18:59 | 44.03653 | 11.71747 | 40414 ft | 468 kts | 162° |
| 2026-05-05 18:59 | 44.00641 | 11.73497 | 39862 ft | 468 kts | 163° |
| 2026-05-05 19:00 | 43.97626 | 11.75247 | 39269 ft | 470 kts | 163° |
| 2026-05-05 19:00 | 43.94604 | 11.76998 | 38696 ft | 471 kts | 164° |
| 2026-05-05 19:00 | 43.91609 | 11.78721 | 38028 ft | 472 kts | 166° |
| 2026-05-05 19:00 | 43.88505 | 11.80066 | 37341 ft | 464 kts | 175° |
| 2026-05-05 19:01 | 43.85344 | 11.80925 | 36671 ft | 460 kts | 177° |
| 2026-05-05 19:01 | 43.82180 | 11.81644 | 36015 ft | 457 kts | 179° |
| 2026-05-05 19:01 | 43.80092 | 11.82073 | 35592 ft | 456 kts | 179° |
| 2026-05-05 19:01 | 43.75929 | 11.83044 | 34778 ft | 459 kts | 175° |
| 2026-05-05 19:02 | 43.72804 | 11.83999 | 34185 ft | 460 kts | 175° |
| 2026-05-05 19:02 | 43.69685 | 11.84991 | 33533 ft | 460 kts | 174° |
| 2026-05-05 19:02 | 43.67617 | 11.85653 | 33084 ft | 459 kts | 174° |
| 2026-05-05 19:02 | 43.64466 | 11.86662 | 32419 ft | 459 kts | 174° |
| 2026-05-05 19:03 | 43.61401 | 11.87641 | 31789 ft | 457 kts | 174° |
| 2026-05-05 19:03 | 43.58300 | 11.88629 | 31146 ft | 456 kts | 174° |
| 2026-05-05 19:03 | 43.55214 | 11.89611 | 30532 ft | 454 kts | 174° |
| 2026-05-05 19:03 | 43.52134 | 11.90590 | 29909 ft | 453 kts | 173° |
| 2026-05-05 19:04 | 43.49071 | 11.91563 | 29206 ft | 450 kts | 173° |
| 2026-05-05 19:04 | 43.46020 | 11.92530 | 28522 ft | 448 kts | 173° |
| 2026-05-05 19:04 | 43.42989 | 11.93490 | 27858 ft | 446 kts | 173° |
| 2026-05-05 19:04 | 43.39976 | 11.94445 | 27194 ft | 443 kts | 172° |
| 2026-05-05 19:05 | 43.36981 | 11.95392 | 26567 ft | 440 kts | 172° |
| 2026-05-05 19:05 | 43.34003 | 11.96330 | 25932 ft | 437 kts | 172° |
| 2026-05-05 19:05 | 43.31075 | 11.97253 | 25329 ft | 434 kts | 171° |
| 2026-05-05 19:05 | 43.28142 | 11.98177 | 24741 ft | 431 kts | 171° |
| 2026-05-05 19:06 | 43.25223 | 11.99097 | 24162 ft | 428 kts | 171° |
| 2026-05-05 19:06 | 43.22336 | 12.00004 | 23590 ft | 425 kts | 170° |
| 2026-05-05 19:06 | 43.19459 | 12.00909 | 22892 ft | 421 kts | 170° |
| 2026-05-05 19:06 | 43.16614 | 12.01803 | 22220 ft | 418 kts | 170° |
| 2026-05-05 19:07 | 43.13789 | 12.02689 | 21577 ft | 414 kts | 170° |
| 2026-05-05 19:07 | 43.10996 | 12.03564 | 20941 ft | 410 kts | 170° |
| 2026-05-05 19:07 | 43.08226 | 12.04431 | 20309 ft | 407 kts | 171° |
| 2026-05-05 19:07 | 43.05455 | 12.05059 | 19697 ft | 400 kts | 178° |
| 2026-05-05 19:08 | 43.02688 | 12.05356 | 19107 ft | 397 kts | 179° |
| 2026-05-05 19:08 | 42.99968 | 12.05568 | 18541 ft | 395 kts | 180° |
| 2026-05-05 19:08 | 42.97236 | 12.05751 | 18009 ft | 392 kts | 180° |
| 2026-05-05 19:08 | 42.94521 | 12.05921 | 17479 ft | 387 kts | 181° |
| 2026-05-05 19:09 | 42.91850 | 12.06083 | 16945 ft | 380 kts | 181° |
| 2026-05-05 19:09 | 42.89225 | 12.06239 | 16440 ft | 375 kts | 181° |
| 2026-05-05 19:09 | 42.86635 | 12.06389 | 15943 ft | 370 kts | 181° |
| 2026-05-05 19:09 | 42.84071 | 12.06538 | 15449 ft | 367 kts | 181° |
| 2026-05-05 19:10 | 42.81532 | 12.06685 | 14964 ft | 362 kts | 181° |
| 2026-05-05 19:10 | 42.79032 | 12.06828 | 14483 ft | 357 kts | 181° |
| 2026-05-05 19:10 | 42.76563 | 12.06971 | 14015 ft | 352 kts | 181° |
| 2026-05-05 19:10 | 42.74159 | 12.07108 | 13506 ft | 348 kts | 181° |
| 2026-05-05 19:11 | 42.71755 | 12.07246 | 13061 ft | 341 kts | 181° |
| 2026-05-05 19:11 | 42.69403 | 12.07382 | 12678 ft | 334 kts | 181° |
| 2026-05-05 19:11 | 42.67103 | 12.07514 | 12297 ft | 327 kts | 181° |
| 2026-05-05 19:11 | 42.64852 | 12.07642 | 11924 ft | 320 kts | 181° |
| 2026-05-05 19:12 | 42.62670 | 12.07768 | 11537 ft | 308 kts | 180° |
| 2026-05-05 19:12 | 42.60547 | 12.07889 | 11168 ft | 300 kts | 180° |
| 2026-05-05 19:12 | 42.58497 | 12.08007 | 10787 ft | 289 kts | 181° |
| 2026-05-05 19:12 | 42.56529 | 12.08117 | 10434 ft | 286 kts | 180° |
| 2026-05-05 19:13 | 42.54554 | 12.08303 | 10141 ft | 283 kts | 174° |
| 2026-05-05 19:13 | 42.52625 | 12.08728 | 10047 ft | 278 kts | 175° |
| 2026-05-05 19:13 | 42.50690 | 12.08766 | 9875 ft | 278 kts | 189° |
| 2026-05-05 19:13 | 42.48772 | 12.08443 | 9628 ft | 277 kts | 187° |
| 2026-05-05 19:14 | 42.46843 | 12.08487 | 9425 ft | 279 kts | 176° |
| 2026-05-05 19:14 | 42.44925 | 12.08783 | 9269 ft | 276 kts | 176° |
| 2026-05-05 19:14 | 42.43043 | 12.09133 | 9119 ft | 275 kts | 174° |
| 2026-05-05 19:14 | 42.41143 | 12.09518 | 8873 ft | 276 kts | 173° |
| 2026-05-05 19:15 | 42.39242 | 12.09925 | 8619 ft | 275 kts | 174° |
| 2026-05-05 19:15 | 42.37365 | 12.10335 | 8360 ft | 272 kts | 173° |
| 2026-05-05 19:15 | 42.35497 | 12.10745 | 8110 ft | 271 kts | 173° |
| 2026-05-05 19:15 | 42.33633 | 12.11156 | 7896 ft | 270 kts | 173° |
| 2026-05-05 19:16 | 42.31804 | 12.11561 | 7561 ft | 269 kts | 173° |
| 2026-05-05 19:16 | 42.29954 | 12.11971 | 7160 ft | 269 kts | 173° |
| 2026-05-05 19:16 | 42.28108 | 12.12378 | 6777 ft | 268 kts | 172° |
| 2026-05-05 19:16 | 42.26270 | 12.12786 | 6389 ft | 267 kts | 172° |
| 2026-05-05 19:17 | 42.24433 | 12.13193 | 5937 ft | 268 kts | 172° |
| 2026-05-05 19:17 | 42.22609 | 12.13584 | 5610 ft | 262 kts | 176° |
| 2026-05-05 19:17 | 42.20803 | 12.13532 | 5227 ft | 260 kts | 185° |
| 2026-05-05 19:17 | 42.19005 | 12.13333 | 4828 ft | 259 kts | 185° |
| 2026-05-05 19:18 | 42.17249 | 12.13121 | 4630 ft | 245 kts | 186° |
| 2026-05-05 19:18 | 42.15630 | 12.12904 | 4403 ft | 229 kts | 186° |
| 2026-05-05 19:18 | 42.14106 | 12.12670 | 4256 ft | 211 kts | 187° |
| 2026-05-05 19:18 | 42.12705 | 12.12587 | 4121 ft | 194 kts | 173° |
| 2026-05-05 19:19 | 42.11440 | 12.13023 | 3896 ft | 184 kts | 165° |
| 2026-05-05 19:19 | 42.10219 | 12.13568 | 3501 ft | 184 kts | 163° |
| 2026-05-05 19:19 | 42.09011 | 12.14092 | 3099 ft | 179 kts | 167° |
| 2026-05-05 19:19 | 42.07821 | 12.14270 | 2795 ft | 165 kts | 178° |
| 2026-05-05 19:20 | 42.06715 | 12.14290 | 2563 ft | 152 kts | 179° |
| 2026-05-05 19:20 | 42.05724 | 12.14277 | 2506 ft | 133 kts | 180° |
| 2026-05-05 19:20 | 42.04825 | 12.14271 | 2516 ft | 130 kts | 180° |
| 2026-05-05 19:20 | 42.03911 | 12.14274 | 2521 ft | 132 kts | 180° |
| 2026-05-05 19:21 | 42.02994 | 12.14314 | 2528 ft | 132 kts | 177° |
| 2026-05-05 19:21 | 42.02073 | 12.14376 | 2526 ft | 132 kts | 176° |
| 2026-05-05 19:21 | 42.01159 | 12.14460 | 2522 ft | 132 kts | 175° |
| 2026-05-05 19:21 | 42.00248 | 12.14558 | 2534 ft | 131 kts | 173° |
| 2026-05-05 19:22 | 41.99347 | 12.14777 | 2527 ft | 132 kts | 167° |
| 2026-05-05 19:22 | 41.98475 | 12.15163 | 2478 ft | 132 kts | 162° |
| 2026-05-05 19:22 | 41.97635 | 12.15626 | 2369 ft | 132 kts | 160° |
| 2026-05-05 19:22 | 41.96794 | 12.16109 | 2214 ft | 131 kts | 159° |
| 2026-05-05 19:23 | 41.95944 | 12.16555 | 2165 ft | 131 kts | 162° |
| 2026-05-05 19:23 | 41.95077 | 12.16926 | 2106 ft | 130 kts | 164° |
| 2026-05-05 19:23 | 41.94210 | 12.17296 | 2044 ft | 131 kts | 163° |
| 2026-05-05 19:23 | 41.93343 | 12.17675 | 1952 ft | 131 kts | 163° |
| 2026-05-05 19:24 | 41.92483 | 12.18055 | 1864 ft | 130 kts | 165° |
| 2026-05-05 19:24 | 41.91619 | 12.18409 | 1769 ft | 130 kts | 164° |
| 2026-05-05 19:24 | 41.90757 | 12.18774 | 1687 ft | 130 kts | 164° |
| 2026-05-05 19:24 | 41.89895 | 12.19153 | 1609 ft | 130 kts | 163° |
| 2026-05-05 19:25 | 41.89032 | 12.19510 | 1523 ft | 130 kts | 165° |
| 2026-05-05 19:25 | 41.88169 | 12.19857 | 1414 ft | 130 kts | 164° |
| 2026-05-05 19:25 | 41.87317 | 12.20211 | 1267 ft | 130 kts | 163° |
| 2026-05-05 19:25 | 41.86462 | 12.20586 | 1074 ft | 129 kts | 162° |
| 2026-05-05 19:26 | 41.85603 | 12.20930 | 849 ft | 129 kts | 162° |
| 2026-05-05 19:26 | 41.84739 | 12.21258 | 681 ft | 130 kts | 163° |
| 2026-05-05 19:26 | 41.83888 | 12.21651 | 505 ft | 128 kts | 160° |
| 2026-05-05 19:26 | 41.83036 | 12.22000 | 317 ft | 127 kts | 159° |
| 2026-05-05 19:27 | 41.82195 | 12.22362 | 175 ft | 128 kts | 161° |
| 2026-05-05 19:27 | 41.81355 | 12.22720 | 48 ft | 126 kts | 160° |
| 2026-05-05 19:27 | 41.80604 | 12.23038 | 18 ft | 88 kts | 163° |
| 2026-05-05 19:27 | 41.80203 | 12.23205 | 20 ft | 40 kts | 162° |
| 2026-05-05 19:28 | 41.80004 | 12.23289 | 24 ft | 21 kts | 162° |
| 2026-05-05 19:28 | 41.79910 | 12.23328 | 22 ft | 7 kts | 162° |
| 2026-05-05 19:28 | 41.79790 | 12.23376 | 20 ft | 26 kts | 163° |